Time;durP1;ratioP1;P1;durP2;ratioP2;P2;SDS_P1;SDS_P2;PMS_P1;PMS_P2;Temp;Humidity;BMP_temperature;BMP_pressure;BME280_temperature;BME280_humidity;BME280_pressure;Samples;Min_cycle;Max_cycle;Signal;HPM_P1;HPM_P2
2023/05/10 00:01:37;;;;;;;5.30;2.60;;;13.40;99.90;;;;;;5056859;28;20055;-81
2023/05/10 00:04:03;;;;;;;5.45;2.63;;;13.40;99.90;;;;;;5055166;28;20044;-81
2023/05/10 00:06:30;;;;;;;6.07;3.00;;;13.40;99.90;;;;;;5056010;28;20069;-81
2023/05/10 00:08:55;;;;;;;6.88;2.78;;;13.40;99.90;;;;;;5058253;28;20048;-81
2023/05/10 00:11:21;;;;;;;5.47;2.47;;;13.40;99.90;;;;;;5053465;28;20086;-81
2023/05/10 00:13:47;;;;;;;5.97;2.40;;;13.40;99.90;;;;;;5090082;28;20510;-81
2023/05/10 00:16:12;;;;;;;5.75;2.70;;;13.40;99.90;;;;;;5070114;28;20470;-81
2023/05/10 00:18:39;;;;;;;4.97;2.40;;;13.40;99.90;;;;;;5055766;28;20041;-81
2023/05/10 00:21:05;;;;;;;6.28;2.88;;;13.40;99.90;;;;;;5056823;28;20086;-81
2023/05/10 00:23:30;;;;;;;5.95;2.75;;;13.40;99.90;;;;;;5042369;28;20048;-81
2023/05/10 00:25:56;;;;;;;6.20;2.72;;;13.40;99.90;;;;;;5035846;28;20046;-81
2023/05/10 00:28:22;;;;;;;7.15;2.83;;;13.40;99.90;;;;;;5075544;28;20062;-81
2023/05/10 00:30:48;;;;;;;6.70;2.40;;;13.30;99.90;;;;;;5058812;28;20044;-81
2023/05/10 00:33:14;;;;;;;6.32;3.10;;;13.30;99.90;;;;;;5058375;28;20119;-81
2023/05/10 00:35:40;;;;;;;6.72;2.75;;;13.30;99.90;;;;;;5037225;28;20037;-81
2023/05/10 00:38:06;;;;;;;5.88;2.80;;;13.30;99.90;;;;;;5072140;28;20043;-81
2023/05/10 00:40:32;;;;;;;5.53;2.83;;;13.30;99.90;;;;;;5057255;28;20040;-81
2023/05/10 00:42:58;;;;;;;7.25;2.55;;;13.30;99.90;;;;;;5043323;28;20040;-81
2023/05/10 00:45:24;;;;;;;6.45;2.78;;;13.30;99.90;;;;;;5088721;28;20039;-81
2023/05/10 00:47:54;;;;;;;5.55;2.20;;;13.30;99.90;;;;;;5040967;28;20114;-81
2023/05/10 00:50:21;;;;;;;5.78;2.63;;;13.20;99.90;;;;;;5054650;28;20478;-81
2023/05/10 00:52:46;;;;;;;5.00;2.33;;;13.30;99.90;;;;;;5057008;28;20040;-81
2023/05/10 00:55:12;;;;;;;5.25;2.17;;;13.30;99.90;;;;;;5055095;28;20115;-80
2023/05/10 00:57:38;;;;;;;4.57;2.42;;;13.20;99.90;;;;;;5053111;28;20070;-81
2023/05/10 01:00:04;;;;;;;6.78;2.50;;;13.20;99.90;;;;;;5052837;28;20410;-81
2023/05/10 01:02:30;;;;;;;5.50;2.25;;;13.20;99.90;;;;;;5060469;28;20036;-81
2023/05/10 01:04:55;;;;;;;5.53;2.08;;;13.20;99.90;;;;;;5054402;28;21798;-81
2023/05/10 01:07:21;;;;;;;6.40;2.83;;;13.20;99.90;;;;;;5041696;28;20055;-81
2023/05/10 01:09:47;;;;;;;4.30;2.00;;;13.20;99.90;;;;;;5037577;28;20035;-81
2023/05/10 01:12:13;;;;;;;5.30;2.53;;;13.20;99.90;;;;;;5057062;28;20686;-81
2023/05/10 01:14:39;;;;;;;5.03;2.47;;;13.20;99.90;;;;;;5059407;28;20441;-81
2023/05/10 01:17:06;;;;;;;5.47;2.58;;;13.20;99.90;;;;;;5089826;28;20189;-81
2023/05/10 01:19:36;;;;;;;8.10;2.72;;;13.20;99.90;;;;;;5091614;28;20040;-81
2023/05/10 01:22:14;;;;;;;6.28;2.70;;;13.20;99.90;;;;;;5058110;28;20048;-81
2023/05/10 01:25:06;;;;;;;5.43;2.60;;;13.20;99.90;;;;;;5057789;28;20052;-81
2023/05/10 01:28:06;;;;;;;4.57;2.10;;;13.10;99.90;;;;;;5059411;28;20736;-81
2023/05/10 01:31:08;;;;;;;6.07;2.53;;;13.20;99.90;;;;;;5057923;28;20107;-81
2023/05/10 01:33:46;;;;;;;5.97;2.70;;;13.20;99.90;;;;;;5040059;28;20422;-81
2023/05/10 01:36:25;;;;;;;5.40;2.30;;;13.10;99.90;;;;;;5057963;28;20041;-81
2023/05/10 01:39:05;;;;;;;7.05;2.70;;;13.10;99.90;;;;;;5060621;28;20045;-81
2023/05/10 01:41:47;;;;;;;6.00;2.50;;;13.10;99.90;;;;;;5059437;28;20044;-81
2023/05/10 01:44:38;;;;;;;5.88;2.47;;;13.10;99.90;;;;;;5061596;28;20032;-80
2023/05/10 01:47:14;;;;;;;5.53;2.20;;;13.10;99.90;;;;;;5052829;28;20057;-81
2023/05/10 01:49:50;;;;;;;6.40;2.08;;;13.00;99.90;;;;;;5092714;28;20054;-81
2023/05/10 01:52:19;;;;;;;5.95;2.45;;;13.10;99.90;;;;;;5042235;28;20098;-81
2023/05/10 01:54:51;;;;;;;5.75;2.45;;;13.10;99.90;;;;;;5039306;28;20060;-81
2023/05/10 01:57:20;;;;;;;6.15;1.92;;;13.00;99.90;;;;;;5061854;28;20040;-81
2023/05/10 01:59:50;;;;;;;5.53;2.05;;;13.10;99.90;;;;;;5040517;28;20032;-81
2023/05/10 02:02:18;;;;;;;4.35;1.95;;;13.10;99.90;;;;;;5070437;28;20043;-81
2023/05/10 02:04:46;;;;;;;4.30;2.15;;;13.00;99.90;;;;;;5058732;28;20570;-81
2023/05/10 02:07:12;;;;;;;5.32;1.73;;;13.10;99.90;;;;;;5059874;28;20041;-81
2023/05/10 02:09:39;;;;;;;3.50;1.75;;;13.10;99.90;;;;;;5061028;28;20289;-81
2023/05/10 02:12:08;;;;;;;5.43;2.10;;;13.10;99.90;;;;;;5058536;28;20044;-81
2023/05/10 02:14:36;;;;;;;7.28;2.47;;;13.00;99.90;;;;;;5044012;28;20029;-81
2023/05/10 02:17:07;;;;;;;6.30;2.90;;;13.10;99.90;;;;;;5092041;28;20079;-81
2023/05/10 02:19:35;;;;;;;6.88;2.60;;;13.10;99.90;;;;;;5053010;28;20421;-81
2023/05/10 02:22:02;;;;;;;4.97;1.95;;;13.00;99.90;;;;;;5093464;28;20315;-81
2023/05/10 02:24:29;;;;;;;6.72;2.58;;;13.00;99.90;;;;;;5061780;28;20043;-81
2023/05/10 02:26:55;;;;;;;6.25;2.75;;;13.00;99.90;;;;;;5040043;28;20379;-81
2023/05/10 02:29:24;;;;;;;4.78;2.50;;;13.00;99.90;;;;;;5040198;28;20045;-81
2023/05/10 02:31:52;;;;;;;5.03;2.30;;;13.00;99.90;;;;;;5058772;28;20127;-81
2023/05/10 02:34:19;;;;;;;7.18;2.45;;;13.00;99.90;;;;;;5055505;28;20037;-81
2023/05/10 02:36:45;;;;;;;5.00;1.70;;;13.00;99.90;;;;;;5041288;28;20509;-81
2023/05/10 02:39:13;;;;;;;4.00;1.83;;;13.00;99.90;;;;;;5037829;28;20044;-81
2023/05/10 02:41:41;;;;;;;5.30;2.53;;;13.00;99.90;;;;;;5075182;28;20033;-81
2023/05/10 02:44:08;;;;;;;4.80;2.20;;;13.00;99.90;;;;;;5041196;28;20426;-81
2023/05/10 02:46:35;;;;;;;6.47;2.30;;;13.00;99.90;;;;;;5041544;28;20771;-81
2023/05/10 02:49:01;;;;;;;5.28;2.35;;;13.00;99.90;;;;;;5054117;28;20351;-81
2023/05/10 02:51:32;;;;;;;5.80;1.95;;;13.00;99.90;;;;;;5060869;28;20208;-81
2023/05/10 02:54:01;;;;;;;3.58;1.75;;;13.00;99.90;;;;;;5042477;28;20040;-81
2023/05/10 02:56:34;;;;;;;4.80;1.60;;;13.00;99.90;;;;;;5072377;28;20063;-80
2023/05/10 02:59:00;;;;;;;5.55;2.17;;;13.00;99.90;;;;;;5041262;28;20051;-81
2023/05/10 03:01:25;;;;;;;4.82;2.17;;;13.00;99.90;;;;;;5039314;28;20036;-81
2023/05/10 03:03:51;;;;;;;4.53;2.17;;;13.00;99.90;;;;;;5056568;28;20033;-81
2023/05/10 03:06:16;;;;;;;6.60;2.55;;;13.00;99.90;;;;;;5090454;28;20684;-81
2023/05/10 03:08:44;;;;;;;6.38;2.97;;;13.00;99.90;;;;;;5044011;28;20040;-81
2023/05/10 03:11:27;;;;;;;5.80;2.70;;;12.90;99.90;;;;;;5061602;28;20035;-81
2023/05/10 03:14:21;;;;;;;5.15;2.03;;;13.00;99.90;;;;;;5055934;28;20036;-81
2023/05/10 03:16:58;;;;;;;4.40;1.90;;;13.00;99.90;;;;;;5053329;28;20075;-81
2023/05/10 03:19:32;;;;;;;7.57;2.90;;;12.90;99.90;;;;;;5090247;28;20036;-81
2023/05/10 03:22:03;;;;;;;7.20;2.20;;;12.90;99.90;;;;;;5042479;28;20048;-81
2023/05/10 03:24:30;;;;;;;5.68;2.40;;;12.90;99.90;;;;;;5057194;28;20068;-81
2023/05/10 03:26:59;;;;;;;4.90;1.95;;;12.90;99.90;;;;;;5035210;28;20408;-81
2023/05/10 03:29:26;;;;;;;4.63;2.30;;;12.90;99.90;;;;;;5059873;28;20052;-81
2023/05/10 03:31:51;;;;;;;6.82;2.40;;;12.90;99.90;;;;;;5057551;28;20036;-81
2023/05/10 03:34:23;;;;;;;6.55;2.60;;;12.90;99.90;;;;;;5056371;28;20504;-81
2023/05/10 03:36:49;;;;;;;6.80;2.40;;;12.90;99.90;;;;;;5071638;28;20037;-81
2023/05/10 03:39:14;;;;;;;4.60;1.88;;;12.90;99.90;;;;;;5060107;28;20039;-81
2023/05/10 03:41:40;;;;;;;6.38;2.30;;;12.90;99.90;;;;;;5043001;28;20055;-81
2023/05/10 03:44:05;;;;;;;3.67;1.67;;;12.90;99.90;;;;;;5054436;28;20044;-81
2023/05/10 03:46:31;;;;;;;4.30;2.17;;;12.80;99.90;;;;;;5056288;28;20033;-81
2023/05/10 03:48:56;;;;;;;5.30;2.10;;;12.90;99.90;;;;;;5057372;28;20498;-81
2023/05/10 03:51:22;;;;;;;5.07;2.70;;;12.90;99.90;;;;;;5060092;28;20656;-81
2023/05/10 03:53:48;;;;;;;6.03;2.67;;;12.80;99.90;;;;;;5037549;28;20032;-81
2023/05/10 03:56:13;;;;;;;4.13;2.25;;;12.80;99.90;;;;;;5041303;28;20513;-81
2023/05/10 03:58:39;;;;;;;5.95;2.17;;;12.80;99.90;;;;;;5040777;28;20040;-81
2023/05/10 04:01:05;;;;;;;4.03;2.08;;;12.80;99.90;;;;;;5054823;28;20505;-81
2023/05/10 04:03:30;;;;;;;4.68;2.00;;;12.80;99.90;;;;;;5073891;28;20467;-81
2023/05/10 04:06:02;;;;;;;6.30;2.40;;;12.80;99.90;;;;;;5044226;28;20059;-81
2023/05/10 04:08:28;;;;;;;4.15;1.60;;;12.80;99.90;;;;;;5059391;28;20044;-81
2023/05/10 04:10:54;;;;;;;4.22;1.90;;;12.80;99.90;;;;;;5058493;28;20501;-81
2023/05/10 04:13:20;;;;;;;4.07;1.67;;;12.80;99.90;;;;;;5056387;28;20074;-81
2023/05/10 04:15:46;;;;;;;3.67;1.70;;;12.70;99.90;;;;;;5039589;28;20478;-81
2023/05/10 04:18:11;;;;;;;2.97;1.45;;;12.70;99.90;;;;;;5057690;28;20040;-81
2023/05/10 04:20:37;;;;;;;5.15;1.77;;;12.70;99.90;;;;;;5053963;28;20078;-80
2023/05/10 04:23:02;;;;;;;4.85;1.50;;;12.70;99.90;;;;;;5056277;28;20481;-81
2023/05/10 04:25:28;;;;;;;3.75;1.38;;;12.70;99.90;;;;;;5072638;28;20041;-81
2023/05/10 04:27:54;;;;;;;4.22;1.90;;;12.70;99.90;;;;;;5055839;28;20143;-81
2023/05/10 04:30:19;;;;;;;5.22;2.17;;;12.70;99.90;;;;;;5076268;28;20119;-81
2023/05/10 04:32:45;;;;;;;4.15;2.30;;;12.70;99.90;;;;;;5038833;28;20048;-81
2023/05/10 04:35:10;;;;;;;4.20;1.85;;;12.60;99.90;;;;;;5033555;28;20029;-81
2023/05/10 04:37:36;;;;;;;5.38;2.17;;;12.70;99.90;;;;;;5046939;28;20063;-81
2023/05/10 04:40:03;;;;;;;5.40;2.47;;;12.70;99.90;;;;;;5091168;28;20090;-81
2023/05/10 04:42:28;;;;;;;5.60;2.15;;;12.70;99.90;;;;;;5054944;28;20055;-81
2023/05/10 04:44:54;;;;;;;5.82;2.03;;;12.60;99.90;;;;;;5057513;28;20036;-81
2023/05/10 04:47:20;;;;;;;3.55;1.70;;;12.70;99.90;;;;;;5032623;28;20041;-81
2023/05/10 04:49:45;;;;;;;5.18;1.83;;;12.60;99.90;;;;;;5061327;28;20032;-81
2023/05/10 04:52:11;;;;;;;3.97;1.80;;;12.60;99.90;;;;;;5057488;28;20456;-81
2023/05/10 04:54:37;;;;;;;4.13;2.28;;;12.60;99.90;;;;;;5054789;28;20074;-81
2023/05/10 04:57:02;;;;;;;5.20;2.08;;;12.60;99.90;;;;;;5061853;28;20123;-81
2023/05/10 04:59:28;;;;;;;4.47;2.00;;;12.60;99.90;;;;;;5043509;28;20036;-81
2023/05/10 05:01:53;;;;;;;2.83;1.45;;;12.70;99.90;;;;;;5054327;28;20047;-81
2023/05/10 05:04:19;;;;;;;4.32;1.70;;;12.70;99.90;;;;;;5067573;28;20504;-81
2023/05/10 05:06:44;;;;;;;4.65;2.03;;;12.60;99.90;;;;;;5040908;28;20037;-81
2023/05/10 05:09:10;;;;;;;3.58;1.55;;;12.60;99.90;;;;;;5042284;28;20041;-81
2023/05/10 05:11:36;;;;;;;4.15;1.80;;;12.60;99.90;;;;;;5055775;28;20490;-81
2023/05/10 05:14:01;;;;;;;4.18;1.90;;;12.70;99.90;;;;;;5039683;28;20045;-81
2023/05/10 05:16:27;;;;;;;3.05;1.80;;;12.70;99.90;;;;;;5059447;28;20038;-81
2023/05/10 05:18:53;;;;;;;4.97;1.95;;;12.70;99.90;;;;;;5062848;28;20036;-81
2023/05/10 05:21:19;;;;;;;3.92;1.67;;;12.70;99.90;;;;;;5058425;28;20083;-81
2023/05/10 05:23:46;;;;;;;3.65;1.90;;;12.70;99.90;;;;;;5044270;28;20144;-81
2023/05/10 05:26:11;;;;;;;4.50;2.10;;;12.60;99.90;;;;;;5057264;28;20055;-81
2023/05/10 05:28:37;;;;;;;4.50;2.15;;;12.60;99.90;;;;;;5042645;28;20037;-81
2023/05/10 05:31:04;;;;;;;3.63;1.42;;;12.70;99.90;;;;;;5065855;28;20059;-80
2023/05/10 05:33:29;;;;;;;4.47;1.80;;;12.70;99.90;;;;;;5066180;28;20078;-80
2023/05/10 05:35:55;;;;;;;3.72;1.80;;;12.70;99.90;;;;;;5064279;28;20037;-81
2023/05/10 05:38:20;;;;;;;3.97;1.88;;;12.70;99.90;;;;;;5064405;28;20055;-81
2023/05/10 05:40:46;;;;;;;4.78;1.90;;;12.70;99.90;;;;;;5066867;28;20444;-80
2023/05/10 05:43:12;;;;;;;4.32;1.88;;;12.70;99.90;;;;;;5041545;28;20116;-81
2023/05/10 05:45:37;;;;;;;4.93;2.08;;;12.70;99.90;;;;;;5064264;28;20462;-81
2023/05/10 05:48:03;;;;;;;5.10;2.10;;;12.70;99.90;;;;;;5066885;28;20406;-80
2023/05/10 05:50:28;;;;;;;5.35;2.15;;;12.80;99.90;;;;;;5059659;28;20406;-80
2023/05/10 05:52:55;;;;;;;5.35;2.03;;;12.70;99.90;;;;;;5047477;28;20509;-80
2023/05/10 05:55:21;;;;;;;4.53;1.65;;;12.70;99.90;;;;;;5051763;28;20036;-80
2023/05/10 05:57:46;;;;;;;4.80;1.75;;;12.70;99.90;;;;;;5060593;28;20040;-80
2023/05/10 06:00:12;;;;;;;3.53;1.90;;;12.70;99.90;;;;;;5063262;28;20042;-80
2023/05/10 06:02:38;;;;;;;3.78;1.67;;;12.70;99.90;;;;;;5091533;28;20064;-81
2023/05/10 06:05:04;;;;;;;3.80;1.67;;;12.80;99.90;;;;;;5073022;28;20118;-82
2023/05/10 06:07:29;;;;;;;4.90;1.80;;;12.80;99.90;;;;;;5046949;28;20068;-80
2023/05/10 06:09:55;;;;;;;3.15;1.27;;;12.70;99.90;;;;;;5060307;28;20045;-81
2023/05/10 06:12:21;;;;;;;2.95;1.40;;;12.70;99.90;;;;;;5060852;28;20036;-81
2023/05/10 06:14:46;;;;;;;4.18;1.52;;;12.70;99.90;;;;;;5049382;28;20043;-81
2023/05/10 06:17:12;;;;;;;2.88;1.20;;;12.80;99.90;;;;;;5057716;28;20089;-81
2023/05/10 06:19:37;;;;;;;4.47;1.33;;;12.80;99.90;;;;;;5063967;28;20776;-80
2023/05/10 06:22:03;;;;;;;2.25;0.95;;;12.70;99.90;;;;;;5063540;28;20078;-81
2023/05/10 06:24:28;;;;;;;2.45;1.10;;;12.70;99.90;;;;;;5062191;28;20047;-81
2023/05/10 06:26:54;;;;;;;3.03;1.23;;;12.80;99.90;;;;;;5059390;28;20052;-81
2023/05/10 06:29:20;;;;;;;4.97;1.40;;;12.80;99.90;;;;;;5060719;28;20049;-81
2023/05/10 06:31:46;;;;;;;4.22;1.52;;;12.80;99.90;;;;;;5075185;28;20029;-81
2023/05/10 06:34:12;;;;;;;2.97;1.27;;;12.80;99.90;;;;;;5064015;28;20043;-81
2023/05/10 06:36:37;;;;;;;2.70;1.20;;;12.80;99.90;;;;;;5062701;28;20082;-81
2023/05/10 06:39:03;;;;;;;4.57;1.35;;;12.80;99.90;;;;;;5045090;28;20063;-81
2023/05/10 06:41:28;;;;;;;4.40;1.30;;;12.80;99.90;;;;;;5062597;28;20106;-81
2023/05/10 06:43:54;;;;;;;2.67;1.17;;;12.80;99.90;;;;;;5044428;28;20068;-81
2023/05/10 06:46:20;;;;;;;2.30;0.77;;;12.80;99.90;;;;;;5043771;28;20565;-81
2023/05/10 06:48:45;;;;;;;2.55;0.88;;;12.80;99.90;;;;;;5048860;28;20036;-81
2023/05/10 06:51:11;;;;;;;1.88;0.70;;;12.80;99.90;;;;;;5063885;28;20035;-81
2023/05/10 06:53:36;;;;;;;1.40;0.50;;;12.80;99.90;;;;;;5045447;28;20029;-81
2023/05/10 06:56:03;;;;;;;3.53;0.80;;;12.80;99.90;;;;;;5061005;28;20032;-81
2023/05/10 06:58:28;;;;;;;2.35;0.82;;;12.80;99.90;;;;;;5087782;28;20410;-81
2023/05/10 07:00:54;;;;;;;1.73;0.70;;;12.80;99.90;;;;;;5061167;28;20045;-81
2023/05/10 07:03:19;;;;;;;1.20;0.63;;;12.80;99.90;;;;;;5043141;28;20407;-81
2023/05/10 07:05:45;;;;;;;1.50;0.55;;;12.90;99.90;;;;;;5047135;28;20182;-80
2023/05/10 07:08:10;;;;;;;1.92;0.70;;;12.80;99.90;;;;;;5056060;28;20051;-80
2023/05/10 07:10:36;;;;;;;1.67;0.90;;;12.90;99.90;;;;;;5046820;28;20564;-80
2023/05/10 07:13:02;;;;;;;0.93;0.50;;;12.80;99.90;;;;;;5060759;28;20094;-81
2023/05/10 07:15:28;;;;;;;1.48;0.55;;;12.90;99.90;;;;;;5062814;28;20087;-81
2023/05/10 07:17:53;;;;;;;1.33;0.57;;;12.90;99.90;;;;;;5046300;28;20039;-80
2023/05/10 07:20:19;;;;;;;1.85;0.70;;;12.90;99.90;;;;;;5046106;28;20045;-80
2023/05/10 07:22:45;;;;;;;2.50;0.93;;;12.90;99.90;;;;;;5062257;28;20079;-80
2023/05/10 07:25:10;;;;;;;1.27;0.77;;;12.90;99.90;;;;;;5042265;28;20037;-80
2023/05/10 07:27:36;;;;;;;2.17;0.55;;;12.90;99.90;;;;;;5039864;28;20053;-80
2023/05/10 07:30:02;;;;;;;1.00;0.55;;;12.90;99.90;;;;;;5046853;28;20052;-80
2023/05/10 07:32:28;;;;;;;1.60;0.57;;;12.90;99.90;;;;;;5055813;28;20125;-81
2023/05/10 07:34:53;;;;;;;2.00;0.85;;;13.00;99.90;;;;;;5057564;28;20029;-81
2023/05/10 07:37:19;;;;;;;1.05;0.47;;;13.00;99.90;;;;;;5059292;28;20041;-81
2023/05/10 07:39:44;;;;;;;0.90;0.50;;;12.90;99.90;;;;;;5059634;28;20043;-81
2023/05/10 07:42:10;;;;;;;2.05;0.80;;;13.00;99.90;;;;;;5046621;28;20040;-80
2023/05/10 07:44:35;;;;;;;1.10;0.60;;;13.00;99.90;;;;;;5057949;28;20516;-80
2023/05/10 07:47:01;;;;;;;1.88;0.77;;;13.00;99.90;;;;;;5040190;28;20036;-81
2023/05/10 07:49:27;;;;;;;1.63;0.60;;;13.00;99.90;;;;;;5061951;28;20043;-81
2023/05/10 07:51:52;;;;;;;1.48;0.70;;;13.00;99.90;;;;;;5097751;28;20494;-81
2023/05/10 07:54:18;;;;;;;1.95;0.77;;;13.00;99.90;;;;;;5060413;28;20087;-80
2023/05/10 07:56:46;;;;;;;1.20;0.50;;;13.00;99.90;;;;;;5059856;28;20036;-81
2023/05/10 07:59:16;;;;;;;1.33;0.60;;;13.00;99.90;;;;;;5060391;28;20054;-81
2023/05/10 08:01:41;;;;;;;2.10;0.90;;;13.10;99.90;;;;;;5061581;28;20040;-80
2023/05/10 08:04:07;;;;;;;2.22;0.73;;;13.10;99.90;;;;;;5059682;28;20428;-81
2023/05/10 08:06:33;;;;;;;3.58;0.82;;;13.10;99.90;;;;;;5055246;28;20123;-81
2023/05/10 08:08:58;;;;;;;2.17;0.88;;;13.10;99.90;;;;;;5057059;28;20119;-80
2023/05/10 08:11:24;;;;;;;1.08;0.50;;;13.10;99.90;;;;;;5062095;28;20036;-80
2023/05/10 08:13:50;;;;;;;1.55;0.50;;;13.10;99.90;;;;;;5065969;28;20039;-81
2023/05/10 08:16:17;;;;;;;1.85;0.75;;;13.10;99.90;;;;;;5055382;28;20567;-81
2023/05/10 08:18:45;;;;;;;2.22;0.70;;;13.10;99.90;;;;;;5038442;28;20067;-81
2023/05/10 08:21:11;;;;;;;1.38;0.60;;;13.10;99.90;;;;;;5060265;28;20037;-81
2023/05/10 08:23:37;;;;;;;2.00;0.75;;;13.10;99.90;;;;;;5035477;28;20456;-81
2023/05/10 08:26:02;;;;;;;1.48;0.70;;;13.10;99.90;;;;;;5089047;28;20052;-80
2023/05/10 08:28:28;;;;;;;2.33;1.00;;;13.10;99.90;;;;;;5091522;28;20119;-80
2023/05/10 08:30:54;;;;;;;2.20;0.95;;;13.10;99.90;;;;;;5038950;28;20044;-80
2023/05/10 08:33:20;;;;;;;2.08;0.80;;;13.20;99.90;;;;;;5043063;28;20032;-80
2023/05/10 08:35:45;;;;;;;1.95;1.00;;;13.20;99.90;;;;;;5066008;28;20036;-80
2023/05/10 08:38:12;;;;;;;3.05;0.95;;;13.20;99.90;;;;;;5064302;28;20056;-80
2023/05/10 08:40:41;;;;;;;2.22;0.93;;;13.10;99.90;;;;;;5047924;28;20040;-80
2023/05/10 08:43:09;;;;;;;2.03;1.00;;;13.10;99.90;;;;;;5048955;28;20032;-80
2023/05/10 08:45:39;;;;;;;2.40;0.90;;;13.10;99.90;;;;;;5067597;28;20044;-80
2023/05/10 08:48:07;;;;;;;2.28;1.15;;;13.10;99.90;;;;;;5049397;28;20047;-80
2023/05/10 08:50:36;;;;;;;1.92;1.00;;;13.10;99.90;;;;;;5062096;28;20124;-80
2023/05/10 08:53:05;;;;;;;1.88;0.75;;;13.10;99.90;;;;;;5060259;28;20228;-80
2023/05/10 08:55:33;;;;;;;2.03;1.10;;;13.20;99.90;;;;;;5060718;28;20064;-80
2023/05/10 08:57:59;;;;;;;2.78;1.05;;;13.20;99.90;;;;;;5057238;28;20040;-80
2023/05/10 09:00:25;;;;;;;2.08;0.95;;;13.20;99.90;;;;;;5082932;28;20039;-81
2023/05/10 09:02:51;;;;;;;2.25;0.98;;;13.20;99.90;;;;;;5041477;28;20036;-80
2023/05/10 09:05:17;;;;;;;2.00;0.80;;;13.20;99.90;;;;;;5060436;28;20068;-81
2023/05/10 09:07:43;;;;;;;2.55;1.10;;;13.20;99.90;;;;;;5061536;28;20123;-81
2023/05/10 09:10:10;;;;;;;2.08;0.90;;;13.20;99.90;;;;;;5062823;28;20434;-81
2023/05/10 09:12:36;;;;;;;2.42;0.82;;;13.20;99.90;;;;;;5044343;28;20421;-81
2023/05/10 09:15:03;;;;;;;2.83;0.80;;;13.30;99.90;;;;;;5062566;28;20093;-80
2023/05/10 09:17:29;;;;;;;1.60;0.88;;;13.30;99.90;;;;;;5062483;28;20033;-81
2023/05/10 09:19:59;;;;;;;1.63;0.80;;;13.40;99.90;;;;;;5091728;28;20041;-81
2023/05/10 09:22:25;;;;;;;1.70;0.70;;;13.50;99.90;;;;;;5061569;28;20055;-81
2023/05/10 09:25:07;;;;;;;2.63;0.98;;;13.50;99.90;;;;;;5061105;28;20055;-79
2023/05/10 09:27:33;;;;;;;2.53;1.05;;;13.50;99.90;;;;;;5064818;28;20071;-80
2023/05/10 09:29:59;;;;;;;2.53;1.00;;;13.50;99.90;;;;;;5042083;28;20549;-80
2023/05/10 09:32:38;;;;;;;2.70;1.13;;;13.50;99.90;;;;;;5060972;28;20040;-81
2023/05/10 09:35:15;;;;;;;2.30;1.13;;;13.50;99.90;;;;;;5091370;28;20128;-81
2023/05/10 09:37:43;;;;;;;4.10;1.00;;;13.50;99.90;;;;;;5060553;28;20112;-81
2023/05/10 09:40:21;;;;;;;2.72;0.93;;;13.60;99.90;;;;;;5057628;28;20288;-81
2023/05/10 09:43:10;;;;;;;4.10;1.20;;;13.60;99.90;;;;;;5053611;28;20181;-80
2023/05/10 09:45:36;;;;;;;3.05;1.20;;;13.80;99.90;;;;;;5088749;28;20080;-81
2023/05/10 09:48:03;;;;;;;3.85;1.00;;;13.80;99.90;;;;;;5063488;28;20041;-81
2023/05/10 09:50:30;;;;;;;2.25;1.17;;;13.90;99.90;;;;;;5049636;28;20083;-81
2023/05/10 09:53:05;;;;;;;3.65;1.33;;;14.00;99.90;;;;;;5064700;28;20375;-81
2023/05/10 09:55:45;;;;;;;3.05;1.40;;;14.00;99.90;;;;;;5065743;28;20025;-81
2023/05/10 09:58:14;;;;;;;3.38;1.20;;;14.00;99.90;;;;;;5046030;28;20038;-81
2023/05/10 10:00:42;;;;;;;3.60;1.52;;;14.00;99.90;;;;;;5064669;28;20476;-81
2023/05/10 10:03:15;;;;;;;2.72;1.33;;;14.10;99.90;;;;;;5065031;28;20050;-81
2023/05/10 10:05:43;;;;;;;2.70;1.13;;;14.00;99.90;;;;;;5079338;28;20111;-81
2023/05/10 10:08:09;;;;;;;2.70;1.40;;;14.00;99.90;;;;;;5064916;28;20377;-81
2023/05/10 10:10:34;;;;;;;2.83;1.42;;;14.10;99.90;;;;;;5062481;28;21629;-81
2023/05/10 10:13:02;;;;;;;3.75;1.60;;;14.10;99.90;;;;;;5043917;28;20033;-81
2023/05/10 10:15:28;;;;;;;3.22;1.52;;;14.10;99.90;;;;;;5063387;28;20502;-81
2023/05/10 10:17:54;;;;;;;3.83;1.10;;;14.10;99.90;;;;;;5062523;28;20124;-82
2023/05/10 10:20:21;;;;;;;2.83;1.35;;;14.10;99.90;;;;;;5060832;28;20047;-80
2023/05/10 10:22:47;;;;;;;3.90;1.40;;;14.10;99.90;;;;;;5046975;28;20412;-80
2023/05/10 10:25:15;;;;;;;3.92;1.30;;;14.20;99.90;;;;;;5063807;28;20040;-80
2023/05/10 10:28:21;;;;;;;4.72;2.03;;;14.20;99.90;;;;;;5044834;28;20052;-80
2023/05/10 10:30:49;;;;;;;3.53;1.80;;;14.30;99.90;;;;;;5061828;28;20270;-80
2023/05/10 10:33:51;;;;;;;3.80;1.45;;;14.30;99.90;;;;;;5063074;28;20040;-80
2023/05/10 10:36:17;;;;;;;2.42;1.13;;;14.30;99.90;;;;;;5062500;28;20552;-80
2023/05/10 10:38:48;;;;;;;4.05;1.70;;;14.40;99.90;;;;;;5041119;28;20323;-81
2023/05/10 10:41:34;;;;;;;3.28;1.42;;;14.30;99.90;;;;;;5043140;28;20132;-81
2023/05/10 10:44:29;;;;;;;3.90;1.77;;;14.30;99.90;;;;;;5060446;28;20048;-81
2023/05/10 10:47:30;;;;;;;3.97;1.73;;;14.40;99.90;;;;;;5043647;28;20055;-81
2023/05/10 10:50:09;;;;;;;4.63;1.83;;;14.30;99.90;;;;;;5069558;28;20044;-81
2023/05/10 10:52:44;;;;;;;3.60;1.35;;;14.40;99.90;;;;;;5041999;28;20041;-81
2023/05/10 10:55:10;;;;;;;;;;;14.40;99.90;;;;;;5043762;28;20037;-81
2023/05/10 10:58:00;;;;;;;3.20;1.50;;;14.40;99.90;;;;;;5094893;28;20111;-81
2023/05/10 11:00:26;;;;;;;3.85;1.92;;;14.50;99.90;;;;;;5073710;28;20047;-81
2023/05/10 11:03:06;;;;;;;5.63;1.63;;;14.50;99.90;;;;;;5090426;28;20351;-81
2023/05/10 11:05:36;;;;;;;3.58;1.63;;;14.60;99.90;;;;;;5044981;28;20033;-81
2023/05/10 11:08:28;;;;;;;3.95;1.42;;;14.60;99.90;;;;;;5043862;28;20044;-82
2023/05/10 11:10:59;;;;;;;4.88;1.90;;;14.60;99.90;;;;;;5092416;28;20087;-82
2023/05/10 11:13:38;;;;;;;2.33;1.30;;;14.60;99.90;;;;;;5044066;28;20051;-82
2023/05/10 11:16:16;;;;;;;4.38;1.67;;;14.50;99.90;;;;;;5062690;28;20459;-81
2023/05/10 11:18:58;;;;;;;3.28;1.40;;;14.50;99.90;;;;;;5037231;28;20040;-81
2023/05/10 11:21:24;;;;;;;3.70;1.45;;;14.50;99.90;;;;;;5058130;28;20051;-82
2023/05/10 11:23:58;;;;;;;2.70;1.48;;;14.40;99.90;;;;;;5058176;28;20032;-81
2023/05/10 11:26:32;;;;;;;5.35;1.80;;;14.40;99.90;;;;;;5067213;28;20076;-81
2023/05/10 11:29:00;;;;;;;5.05;2.22;;;14.40;99.90;;;;;;5037469;28;20128;-81
2023/05/10 11:31:26;;;;;;;3.65;1.45;;;14.40;99.90;;;;;;5059461;28;20044;-81
2023/05/10 11:33:57;;;;;;;3.80;1.70;;;14.40;99.90;;;;;;5038784;28;20139;-81
2023/05/10 11:36:32;;;;;;;3.65;1.35;;;14.40;99.90;;;;;;5058368;28;20040;-81
2023/05/10 11:38:58;;;;;;;;;;;14.40;99.90;;;;;;5062715;28;20040;-81
2023/05/10 11:41:24;;;;;;;2.80;1.17;;;14.40;99.90;;;;;;5062928;28;19917;-81
2023/05/10 11:43:52;;;;;;;3.85;1.50;;;14.50;99.90;;;;;;5043756;28;20127;-81
2023/05/10 11:46:20;;;;;;;3.92;1.27;;;14.60;99.90;;;;;;5044328;28;20040;-81
2023/05/10 11:48:48;;;;;;;3.17;1.27;;;14.50;99.90;;;;;;5061535;28;20045;-81
2023/05/10 11:51:14;;;;;;;2.80;1.40;;;14.60;99.90;;;;;;5046545;28;20067;-81
2023/05/10 11:53:40;;;;;;;3.72;1.25;;;14.60;99.90;;;;;;5061596;28;20064;-81
2023/05/10 11:56:10;;;;;;;3.10;1.40;;;14.70;99.90;;;;;;5046427;28;20035;-81
2023/05/10 11:58:37;;;;;;;2.17;1.17;;;14.70;99.90;;;;;;5095941;28;20493;-81
2023/05/10 12:01:04;;;;;;;3.75;1.63;;;14.70;99.90;;;;;;5060408;28;20127;-81
2023/05/10 12:03:30;;;;;;;4.45;1.20;;;14.80;99.90;;;;;;5074642;28;20044;-81
2023/05/10 12:05:57;;;;;;;4.95;1.40;;;14.80;99.90;;;;;;5041845;28;20064;-81
2023/05/10 12:08:24;;;;;;;2.75;1.13;;;14.80;99.90;;;;;;5045629;28;20039;-81
2023/05/10 12:10:51;;;;;;;3.33;1.30;;;14.80;99.90;;;;;;5095854;28;20033;-81
2023/05/10 12:13:17;;;;;;;4.57;1.73;;;14.80;99.90;;;;;;5094005;28;20040;-81
2023/05/10 12:15:43;;;;;;;4.30;1.65;;;14.80;99.90;;;;;;5061233;28;20054;-80
2023/05/10 12:18:13;;;;;;;2.97;1.30;;;14.80;99.90;;;;;;5060252;28;20074;-82
2023/05/10 12:20:40;;;;;;;4.35;1.50;;;14.80;99.90;;;;;;5041617;28;20045;-81
2023/05/10 12:23:08;;;;;;;2.33;1.00;;;14.80;99.90;;;;;;5056544;28;20040;-81
2023/05/10 12:25:36;;;;;;;3.08;1.30;;;14.80;99.90;;;;;;5062646;28;20109;-81
2023/05/10 12:28:07;;;;;;;3.25;1.50;;;14.80;99.90;;;;;;5050108;28;20048;-80
2023/05/10 12:30:34;;;;;;;4.00;1.85;;;14.80;99.90;;;;;;5043391;28;20041;-80
2023/05/10 12:33:11;;;;;;;6.10;1.70;;;14.80;99.90;;;;;;5037635;28;20040;-81
2023/05/10 12:35:49;;;;;;;4.57;1.75;;;14.80;99.90;;;;;;5056771;28;20036;-81
2023/05/10 12:38:33;;;;;;;3.85;1.80;;;14.80;99.90;;;;;;5061616;28;20455;-80
2023/05/10 12:41:01;;;;;;;3.15;1.45;;;14.80;99.90;;;;;;5076603;28;20174;-81
2023/05/10 12:43:26;;;;;;;4.13;1.92;;;14.80;99.90;;;;;;5042548;28;20178;-80
2023/05/10 12:45:52;;;;;;;5.78;1.63;;;14.80;99.90;;;;;;5059404;28;20063;-80
2023/05/10 12:48:18;;;;;;;3.90;1.33;;;14.80;99.90;;;;;;5054817;28;20033;-80
2023/05/10 12:50:44;;;;;;;5.15;1.75;;;14.80;99.90;;;;;;5046228;28;20036;-81
2023/05/10 12:53:09;;;;;;;4.72;1.75;;;14.80;99.90;;;;;;5060551;28;20091;-81
2023/05/10 12:55:35;;;;;;;3.35;1.50;;;14.80;99.90;;;;;;5061302;28;20029;-81